createdAt,value
2022-10-08T00:01:29.567Z,69.82
2022-10-08T00:03:57.551Z,69.78
2022-10-08T00:06:32.298Z,70.43
2022-10-08T00:09:06.451Z,71.30
2022-10-08T00:11:40.223Z,71.23
2022-10-08T00:14:09.450Z,70.63
2022-10-08T00:16:41.859Z,70.02
2022-10-08T00:19:15.394Z,70.74
2022-10-08T00:21:45.839Z,70.81
2022-10-08T00:24:19.043Z,71.08
2022-10-08T00:26:46.516Z,71.27
2022-10-08T00:29:20.008Z,70.50
2022-10-08T00:31:50.611Z,71.06
2022-10-08T00:34:23.449Z,70.73
2022-10-08T00:36:55.743Z,71.33
2022-10-08T00:39:25.305Z,71.76
2022-10-08T00:41:56.438Z,71.71
2022-10-08T00:44:56.368Z,71.65
2022-10-08T00:47:49.129Z,71.60
2022-10-08T00:50:34.407Z,71.58
2022-10-08T00:53:07.859Z,71.29
2022-10-08T00:55:43.925Z,71.71
2022-10-08T00:58:23.366Z,72.09
2022-10-08T01:00:51.039Z,71.56
2022-10-08T01:03:18.559Z,71.71
2022-10-08T01:06:22.796Z,71.92
2022-10-08T01:09:18.669Z,71.40
2022-10-08T01:12:37.201Z,71.77
2022-10-08T01:16:11.800Z,71.41
2022-10-08T01:19:20.351Z,71.67
2022-10-08T01:22:43.168Z,71.87
2022-10-08T01:25:37.730Z,72.45
2022-10-08T01:29:16.972Z,71.35
2022-10-08T01:32:07.147Z,71.33
2022-10-08T01:34:54.767Z,71.59
2022-10-08T01:37:34.421Z,71.42
2022-10-08T01:40:09.528Z,71.65
2022-10-08T01:42:41.904Z,71.90
2022-10-08T01:45:19.872Z,71.42
2022-10-08T01:47:49.465Z,71.91
2022-10-08T01:50:34.766Z,71.84
2022-10-08T01:53:12.413Z,71.72
2022-10-08T01:55:48.187Z,71.61
2022-10-08T01:58:36.465Z,72.06
2022-10-08T02:01:22.212Z,71.85
2022-10-08T02:04:08.155Z,71.70
2022-10-08T02:06:39.169Z,71.34
2022-10-08T02:09:06.431Z,72.02
2022-10-08T02:11:35.805Z,71.80
2022-10-08T02:14:05.589Z,71.76
2022-10-08T02:16:37.510Z,72.09
2022-10-08T02:19:28.925Z,72.23
2022-10-08T02:22:00.347Z,71.62
2022-10-08T02:24:44.322Z,72.56
2022-10-08T02:27:13.471Z,72.80
2022-10-08T02:30:10.225Z,73.38
2022-10-08T02:33:05.384Z,72.70
2022-10-08T02:35:49.175Z,73.03
2022-10-08T02:38:40.610Z,72.67
2022-10-08T02:41:11.333Z,72.57
2022-10-08T02:43:48.608Z,73.21
2022-10-08T02:46:27.418Z,72.74
2022-10-08T02:49:26.077Z,72.92
2022-10-08T02:51:55.178Z,72.48
2022-10-08T02:54:24.186Z,72.33
2022-10-08T02:57:32.004Z,72.44
2022-10-08T02:59:59.530Z,72.64
2022-10-08T03:02:56.591Z,73.08
2022-10-08T03:05:24.585Z,72.48
2022-10-08T03:07:54.733Z,72.58
2022-10-08T03:10:25.917Z,72.66
2022-10-08T03:13:02.089Z,72.48
2022-10-08T03:15:33.284Z,72.09
2022-10-08T03:18:07.661Z,73.21
2022-10-08T03:20:49.456Z,72.06
2022-10-08T03:23:19.031Z,72.52
2022-10-08T03:25:46.607Z,72.54
2022-10-08T03:28:14.712Z,72.89
2022-10-08T03:30:42.098Z,73.54
2022-10-08T03:33:09.399Z,72.96
2022-10-08T03:35:46.796Z,73.46
2022-10-08T03:38:16.148Z,73.42
2022-10-08T03:40:53.968Z,72.98
2022-10-08T03:43:21.734Z,73.82
2022-10-08T03:45:55.328Z,73.25
2022-10-08T03:48:23.833Z,73.22
2022-10-08T03:51:12.792Z,72.81
2022-10-08T03:53:42.917Z,73.90
2022-10-08T03:56:17.984Z,73.32
2022-10-08T03:58:54.382Z,73.78
2022-10-08T04:01:23.424Z,73.61
2022-10-08T04:03:50.835Z,73.85
2022-10-08T04:06:18.139Z,74.12
2022-10-08T04:08:46.428Z,73.52
2022-10-08T04:11:20.150Z,73.28
2022-10-08T04:13:47.664Z,73.24
2022-10-08T04:16:18.718Z,73.37
2022-10-08T04:18:48.580Z,73.68
2022-10-08T04:21:19.405Z,74.09
2022-10-08T04:23:50.879Z,73.99
2022-10-08T04:26:18.241Z,73.42
2022-10-08T04:28:46.273Z,73.75
2022-10-08T04:31:21.608Z,73.50
2022-10-08T04:33:51.587Z,73.51
2022-10-08T04:36:24.674Z,73.92
2022-10-08T04:38:52.529Z,74.09
2022-10-08T04:41:28.122Z,73.86
2022-10-08T04:44:03.256Z,73.83
2022-10-08T04:46:30.560Z,73.79
2022-10-08T04:48:58.305Z,74.01
2022-10-08T04:51:27.552Z,73.99
2022-10-08T04:53:58.044Z,74.02
2022-10-08T04:56:30.002Z,73.67
2022-10-08T04:58:59.909Z,73.10
2022-10-08T05:01:29.844Z,72.94
2022-10-08T05:04:00.966Z,73.46
2022-10-08T05:06:31.861Z,73.53
2022-10-08T05:09:05.063Z,73.05
2022-10-08T05:11:33.612Z,72.95
2022-10-08T05:14:01.568Z,72.86
2022-10-08T05:16:29.810Z,72.54
2022-10-08T05:18:58.061Z,72.61
2022-10-08T05:21:29.994Z,72.99
2022-10-08T05:24:05.387Z,73.43
2022-10-08T05:29:30.149Z,73.10
2022-10-08T05:31:57.833Z,74.24
2022-10-08T05:34:25.240Z,73.49
2022-10-08T05:36:53.729Z,73.35
2022-10-08T05:39:22.628Z,73.42
2022-10-08T05:41:49.980Z,74.06
2022-10-08T05:44:17.363Z,73.55
2022-10-08T05:46:44.776Z,73.54
2022-10-08T05:49:22.221Z,73.28
2022-10-08T05:51:51.087Z,73.45
2022-10-08T05:54:20.210Z,73.57
2022-10-08T05:56:47.828Z,73.59
2022-10-08T05:59:24.181Z,73.16
2022-10-08T06:01:52.219Z,73.09
2022-10-08T06:04:19.917Z,73.21
2022-10-08T06:06:47.494Z,73.36
2022-10-08T06:09:20.384Z,73.32
2022-10-08T06:11:49.316Z,72.98
2022-10-08T06:14:17.766Z,72.85
2022-10-08T06:16:45.128Z,72.46
2022-10-08T06:19:12.574Z,73.19
2022-10-08T06:21:39.832Z,73.22
2022-10-08T06:24:11.645Z,72.68
2022-10-08T06:26:44.177Z,72.34
2022-10-08T06:29:18.731Z,72.37
2022-10-08T06:31:46.690Z,72.48
2022-10-08T06:34:15.052Z,73.06
2022-10-08T06:36:42.350Z,73.45
2022-10-08T06:39:15.547Z,72.42
2022-10-08T06:41:42.905Z,72.37
2022-10-08T06:44:14.695Z,72.05
2022-10-08T06:46:43.102Z,71.77
2022-10-08T06:49:12.155Z,71.93
2022-10-08T06:51:39.623Z,72.40
2022-10-08T06:54:08.520Z,71.90
2022-10-08T06:56:41.177Z,71.95
2022-10-08T06:59:08.805Z,72.29
2022-10-08T07:01:38.191Z,72.11
2022-10-08T07:04:06.897Z,72.09
2022-10-08T07:06:34.581Z,72.18
2022-10-08T07:09:03.332Z,71.75
2022-10-08T07:11:32.415Z,72.40
2022-10-08T07:14:00.723Z,72.34
2022-10-08T07:16:29.302Z,72.32
2022-10-08T07:18:58.611Z,72.43
2022-10-08T07:21:29.892Z,73.77
2022-10-08T07:24:01.534Z,73.91
2022-10-08T07:26:34.274Z,73.33
2022-10-08T07:29:11.645Z,73.28
2022-10-08T07:31:40.513Z,73.15
2022-10-08T07:34:13.339Z,72.88
2022-10-08T07:36:41.783Z,73.23
2022-10-08T07:39:15.625Z,72.30
2022-10-08T07:41:44.153Z,72.06
2022-10-08T07:44:12.972Z,72.88
2022-10-08T07:46:50.268Z,72.81
2022-10-08T07:49:19.429Z,72.64
2022-10-08T07:51:48.084Z,72.18
2022-10-08T07:54:19.662Z,72.84
2022-10-08T07:56:47.534Z,72.68
2022-10-08T07:59:16.064Z,72.65
2022-10-08T08:01:44.217Z,73.22
2022-10-08T08:04:12.204Z,73.17
2022-10-08T08:06:51.060Z,73.57
2022-10-08T08:09:19.065Z,74.06
2022-10-08T08:11:48.224Z,74.15
2022-10-08T08:14:15.673Z,74.36
2022-10-08T08:16:43.064Z,73.48
2022-10-08T08:19:10.536Z,72.87
2022-10-08T08:21:39.554Z,73.32
2022-10-08T08:24:12.228Z,73.78
2022-10-08T08:26:43.905Z,73.44
2022-10-08T08:29:18.494Z,72.66
2022-10-08T08:31:50.269Z,73.44
2022-10-08T08:34:24.394Z,72.54
2022-10-08T08:36:53.820Z,72.03
2022-10-08T08:39:28.177Z,71.76
2022-10-08T08:42:42.568Z,72.00
2022-10-08T08:45:46.416Z,71.97
2022-10-08T08:48:28.968Z,72.28
2022-10-08T08:50:59.453Z,71.33
2022-10-08T08:53:27.561Z,70.80
2022-10-08T08:56:00.040Z,71.06
2022-10-08T08:59:03.785Z,71.14
2022-10-08T09:01:42.774Z,70.92
2022-10-08T09:04:47.157Z,71.02
2022-10-08T09:07:24.992Z,70.35
2022-10-08T09:09:58.694Z,70.43
2022-10-08T09:12:44.817Z,69.88
2022-10-08T09:15:37.479Z,69.23
2022-10-08T09:18:05.632Z,68.71
2022-10-08T09:20:39.324Z,68.84
2022-10-08T09:23:22.224Z,68.76
2022-10-08T09:26:22.001Z,68.23
2022-10-08T09:28:58.003Z,68.14
2022-10-08T09:31:25.479Z,68.30
2022-10-08T09:34:19.770Z,67.75
2022-10-08T09:37:01.787Z,67.52
2022-10-08T09:39:37.441Z,66.94
2022-10-08T09:42:08.525Z,66.70
2022-10-08T09:44:56.676Z,66.13
2022-10-08T09:47:27.002Z,66.06
2022-10-08T09:50:19.822Z,65.35
2022-10-08T09:53:00.084Z,65.69
2022-10-08T09:55:35.280Z,65.02
2022-10-08T09:58:04.157Z,64.44
2022-10-08T10:00:40.940Z,64.41
2022-10-08T10:03:26.637Z,64.11
2022-10-08T10:05:57.147Z,64.64
2022-10-08T10:09:02.755Z,64.83
2022-10-08T10:11:48.600Z,64.98
2022-10-08T10:14:53.962Z,65.89
2022-10-08T10:17:59.821Z,66.88
2022-10-08T10:20:58.652Z,66.56
2022-10-08T10:23:40.010Z,67.00
2022-10-08T10:26:21.816Z,66.91
2022-10-08T10:29:10.457Z,67.25
2022-10-08T10:31:48.247Z,66.95
2022-10-08T10:34:30.033Z,66.15
2022-10-08T10:37:09.992Z,66.61
2022-10-08T10:40:27.675Z,65.82
2022-10-08T10:43:16.437Z,65.97
2022-10-08T10:45:58.261Z,66.02
2022-10-08T10:48:25.858Z,65.31
2022-10-08T10:51:57.515Z,64.88
2022-10-08T10:55:27.733Z,64.69
2022-10-08T10:58:29.975Z,64.11
2022-10-08T11:01:12.362Z,60.55
2022-10-08T11:04:15.273Z,59.19
2022-10-08T11:08:03.435Z,59.45
2022-10-08T11:11:33.813Z,59.39
2022-10-08T11:16:01.255Z,58.55
2022-10-08T11:18:56.133Z,58.65
2022-10-08T11:22:20.785Z,57.61
2022-10-08T11:26:16.531Z,57.20
2022-10-08T11:29:22.475Z,55.30
2022-10-08T11:31:53.201Z,55.78
2022-10-08T11:34:37.373Z,55.18
2022-10-08T11:37:41.174Z,53.54
2022-10-08T11:40:42.051Z,54.36
2022-10-08T11:43:37.519Z,53.96
2022-10-08T11:46:36.673Z,53.56
2022-10-08T11:49:25.285Z,53.20
2022-10-08T11:51:55.743Z,53.11
2022-10-08T11:54:38.449Z,52.52
2022-10-08T11:58:07.157Z,52.10
2022-10-08T12:00:46.051Z,50.98
2022-10-08T12:03:37.173Z,52.41
2022-10-08T12:06:26.726Z,51.50
2022-10-08T12:09:07.572Z,52.19
2022-10-08T12:11:37.643Z,52.27
2022-10-08T12:14:14.419Z,51.79
2022-10-08T12:16:47.734Z,52.17
2022-10-08T12:19:33.240Z,51.78
2022-10-08T12:22:17.244Z,50.47
2022-10-08T12:24:49.735Z,49.96
2022-10-08T12:27:18.099Z,50.18
2022-10-08T12:30:10.568Z,49.50
2022-10-08T12:32:43.364Z,49.21
2022-10-08T12:35:37.124Z,47.65
2022-10-08T12:38:16.290Z,47.95
2022-10-08T12:41:10.296Z,49.40
2022-10-08T12:44:28.476Z,46.00
2022-10-08T12:47:43.720Z,46.59
2022-10-08T12:50:49.760Z,45.92
2022-10-08T12:53:18.537Z,45.63
2022-10-08T12:55:58.207Z,42.15
2022-10-08T12:58:31.831Z,42.69
2022-10-08T13:01:05.398Z,41.71
2022-10-08T13:03:33.148Z,40.98
2022-10-08T13:06:30.523Z,40.97
2022-10-08T13:09:01.100Z,40.67
2022-10-08T13:11:28.377Z,40.33
2022-10-08T13:13:55.630Z,38.87
2022-10-08T13:16:26.877Z,38.43
2022-10-08T13:18:58.725Z,37.93
2022-10-08T13:21:32.011Z,39.48
2022-10-08T13:24:12.475Z,40.41
2022-10-08T13:27:30.492Z,39.91
2022-10-08T13:30:20.068Z,40.12
2022-10-08T13:32:47.451Z,40.57
2022-10-08T13:35:24.341Z,38.60
2022-10-08T13:37:54.052Z,39.20
2022-10-08T13:40:23.895Z,38.90
2022-10-08T13:42:58.819Z,38.83
2022-10-08T13:45:39.348Z,37.92
2022-10-08T13:48:14.737Z,38.01
2022-10-08T13:50:50.290Z,37.51
2022-10-08T13:53:25.944Z,37.56
2022-10-08T13:55:54.074Z,38.26
2022-10-08T13:58:21.604Z,38.49
2022-10-08T14:00:49.494Z,37.82
2022-10-08T14:03:17.916Z,37.66
2022-10-08T14:05:48.489Z,37.30
2022-10-08T14:08:29.588Z,36.87
2022-10-08T14:11:00.346Z,37.89
2022-10-08T14:13:29.683Z,37.53
2022-10-08T14:15:57.077Z,39.05
2022-10-08T14:18:24.435Z,38.79
2022-10-08T14:20:52.234Z,38.94
2022-10-08T14:23:20.266Z,39.05
2022-10-08T14:25:47.564Z,38.64
2022-10-08T14:28:14.889Z,39.00
2022-10-08T14:30:42.192Z,38.72
2022-10-08T14:33:11.578Z,38.03
2022-10-08T14:35:40.726Z,38.97
2022-10-08T14:38:08.789Z,39.43
2022-10-08T14:40:36.574Z,39.20
2022-10-08T14:43:03.942Z,39.73
2022-10-08T14:45:33.694Z,40.20
2022-10-08T14:48:01.008Z,40.10
2022-10-08T14:50:28.328Z,41.04
2022-10-08T14:52:55.595Z,40.20
2022-10-08T14:55:22.852Z,40.04
2022-10-08T14:57:50.637Z,40.49
2022-10-08T15:00:17.937Z,38.25
2022-10-08T15:02:45.604Z,39.81
2022-10-08T15:05:12.977Z,42.32
2022-10-08T15:07:40.231Z,42.78
2022-10-08T15:10:08.754Z,44.04
2022-10-08T15:12:36.135Z,44.28
2022-10-08T15:15:04.248Z,45.81
2022-10-08T15:17:31.633Z,45.97
2022-10-08T15:19:59.601Z,44.94
2022-10-08T15:22:26.848Z,45.73
2022-10-08T15:24:54.113Z,45.52
2022-10-08T15:27:21.469Z,45.07
2022-10-08T15:29:48.726Z,45.51
2022-10-08T15:32:16.009Z,47.18
2022-10-08T15:34:43.267Z,47.04
2022-10-08T15:37:10.529Z,47.34
2022-10-08T15:39:38.191Z,46.41
2022-10-08T15:42:05.521Z,46.23
2022-10-08T15:44:33.072Z,45.51
2022-10-08T15:47:12.095Z,45.25
2022-10-08T15:49:43.382Z,45.17
2022-10-08T15:52:20.689Z,44.89
2022-10-08T15:54:48.425Z,45.27
2022-10-08T15:57:18.369Z,45.06
2022-10-08T15:59:46.500Z,45.79
2022-10-08T16:02:17.449Z,46.49
2022-10-08T16:04:47.792Z,45.21
2022-10-08T16:07:16.451Z,45.24
2022-10-08T16:09:43.801Z,45.86
2022-10-08T16:12:11.429Z,45.99
2022-10-08T16:14:38.698Z,45.34
2022-10-08T16:17:06.039Z,45.38
2022-10-08T16:19:33.331Z,46.15
2022-10-08T16:22:01.291Z,45.48
2022-10-08T16:24:28.778Z,45.95
2022-10-08T16:26:56.228Z,46.30
2022-10-08T16:29:23.493Z,48.02
2022-10-08T16:31:50.888Z,46.24
2022-10-08T16:34:24.651Z,46.54
2022-10-08T16:36:52.108Z,46.91
2022-10-08T16:39:24.193Z,47.30
2022-10-08T16:41:52.216Z,47.34
2022-10-08T16:44:21.509Z,46.97
2022-10-08T16:46:52.607Z,47.27
2022-10-08T16:49:29.960Z,47.30
2022-10-08T16:52:04.680Z,48.78
2022-10-08T16:54:32.895Z,48.64
2022-10-08T16:57:00.422Z,48.96
2022-10-08T16:59:30.168Z,48.12
2022-10-08T17:02:00.387Z,48.96
2022-10-08T17:04:29.739Z,48.27
2022-10-08T17:06:57.033Z,48.50
2022-10-08T17:09:24.320Z,48.63
2022-10-08T17:11:53.355Z,48.82
2022-10-08T17:14:20.782Z,49.69
2022-10-08T17:16:49.903Z,49.75
2022-10-08T17:19:17.692Z,50.21
2022-10-08T17:21:45.233Z,50.08
2022-10-08T17:24:13.196Z,50.33
2022-10-08T17:26:41.930Z,50.79
2022-10-08T17:29:12.772Z,50.91
2022-10-08T17:31:41.020Z,50.71
2022-10-08T17:34:09.639Z,51.17
2022-10-08T17:36:41.563Z,52.44
2022-10-08T17:39:14.251Z,51.61
2022-10-08T17:41:43.349Z,51.79
2022-10-08T17:44:12.046Z,51.77
2022-10-08T17:46:47.769Z,52.13
2022-10-08T17:49:19.410Z,52.67
2022-10-08T17:51:47.940Z,52.34
2022-10-08T17:54:19.829Z,52.40
2022-10-08T17:56:48.697Z,52.89
2022-10-08T17:59:23.813Z,53.85
2022-10-08T18:01:51.438Z,54.07
2022-10-08T18:04:20.460Z,54.26
2022-10-08T18:06:48.792Z,54.65
2022-10-08T18:09:22.507Z,55.81
2022-10-08T18:11:53.348Z,55.12
2022-10-08T18:14:23.369Z,55.91
2022-10-08T18:16:51.798Z,55.97
2022-10-08T18:19:19.741Z,54.59
2022-10-08T18:21:47.434Z,56.39
2022-10-08T18:24:16.881Z,56.34
2022-10-08T18:26:44.534Z,56.60
2022-10-08T18:29:14.887Z,57.53
2022-10-08T18:31:44.528Z,57.99
2022-10-08T18:34:18.957Z,58.41
2022-10-08T18:36:46.989Z,58.61
2022-10-08T18:39:23.701Z,58.38
2022-10-08T18:41:55.672Z,58.67
2022-10-08T18:44:25.668Z,58.70
2022-10-08T18:46:53.719Z,58.38
2022-10-08T18:49:30.538Z,59.22
2022-10-08T18:51:58.893Z,58.75
2022-10-08T18:54:26.253Z,58.75
2022-10-08T18:56:55.621Z,58.75
2022-10-08T18:59:23.482Z,59.25
2022-10-08T19:01:50.988Z,59.62
2022-10-08T19:04:23.007Z,60.48
2022-10-08T19:06:55.570Z,60.47
2022-10-08T19:09:23.177Z,61.07
2022-10-08T19:11:54.444Z,61.11
2022-10-08T19:14:24.707Z,61.88
2022-10-08T19:16:52.478Z,62.04
2022-10-08T19:19:27.488Z,61.79
2022-10-08T19:21:55.718Z,61.54
2022-10-08T19:24:26.077Z,63.02
2022-10-08T19:26:55.176Z,62.50
2022-10-08T19:29:29.326Z,62.82
2022-10-08T19:31:57.216Z,62.71
2022-10-08T19:34:27.746Z,62.85
2022-10-08T19:36:55.427Z,62.37
2022-10-08T19:39:29.015Z,62.17
2022-10-08T19:41:56.626Z,62.28
2022-10-08T19:44:23.985Z,62.08
2022-10-08T19:46:52.203Z,61.60
2022-10-08T19:49:21.230Z,62.60
2022-10-08T19:51:48.563Z,62.34
2022-10-08T19:54:17.151Z,61.25
2022-10-08T19:56:44.468Z,61.64
2022-10-08T19:59:13.132Z,61.77
2022-10-08T20:01:42.968Z,61.40
2022-10-08T20:04:11.727Z,61.16
2022-10-08T20:06:41.888Z,61.17
2022-10-08T20:09:13.448Z,61.15
2022-10-08T20:11:44.696Z,62.12
2022-10-08T20:14:14.507Z,62.26
2022-10-08T20:16:43.476Z,61.44
2022-10-08T20:19:22.571Z,61.25
2022-10-08T20:21:53.524Z,60.57
2022-10-08T20:24:22.066Z,61.05
2022-10-08T20:26:50.100Z,61.01
2022-10-08T20:29:25.233Z,61.34
2022-10-08T20:31:56.235Z,61.79
2022-10-08T20:34:28.735Z,61.51
2022-10-08T20:36:57.917Z,62.56
2022-10-08T20:39:25.417Z,62.59
2022-10-08T20:41:52.775Z,62.91
2022-10-08T20:44:20.654Z,62.71
2022-10-08T20:46:51.402Z,62.24
2022-10-08T20:49:19.344Z,61.79
2022-10-08T20:51:47.108Z,62.82
2022-10-08T20:54:17.251Z,62.78
2022-10-08T20:56:48.098Z,62.89
2022-10-08T20:59:18.496Z,63.31
2022-10-08T21:01:46.644Z,63.63
2022-10-08T21:04:14.112Z,63.14
2022-10-08T21:06:49.959Z,62.89
2022-10-08T21:09:21.597Z,62.95
2022-10-08T21:11:49.360Z,63.03
2022-10-08T21:14:22.437Z,62.90
2022-10-08T21:16:50.072Z,63.28
2022-10-08T21:19:23.001Z,63.43
2022-10-08T21:21:50.690Z,64.18
2022-10-08T21:24:18.102Z,64.13
2022-10-08T21:26:45.682Z,63.95
2022-10-08T21:29:14.511Z,63.88
2022-10-08T21:31:42.932Z,64.01
2022-10-08T21:34:13.268Z,64.79
2022-10-08T21:36:42.193Z,63.92
2022-10-08T21:39:16.727Z,63.54
2022-10-08T21:41:45.174Z,62.89
2022-10-08T21:44:13.337Z,62.64
2022-10-08T21:46:43.545Z,62.94
2022-10-08T21:49:20.655Z,63.34
2022-10-08T21:51:49.460Z,63.88
2022-10-08T21:54:17.559Z,63.74
2022-10-08T21:56:45.588Z,64.75
2022-10-08T21:59:16.650Z,64.05
2022-10-08T22:01:50.369Z,63.92
2022-10-08T22:04:23.540Z,64.21
2022-10-08T22:06:58.287Z,64.60
2022-10-08T22:09:34.474Z,64.43
2022-10-08T22:12:02.529Z,64.29
2022-10-08T22:14:30.032Z,64.21
2022-10-08T22:16:58.423Z,63.06
2022-10-08T22:19:25.732Z,62.84
2022-10-08T22:21:52.982Z,63.52
2022-10-08T22:24:20.306Z,63.18
2022-10-08T22:26:48.229Z,62.90
2022-10-08T22:29:16.261Z,63.50
2022-10-08T22:31:43.685Z,64.01
2022-10-08T22:34:11.600Z,63.38
2022-10-08T22:36:43.966Z,62.64
2022-10-08T22:39:11.774Z,63.28
2022-10-08T22:41:39.378Z,63.84
2022-10-08T22:44:06.656Z,64.11
2022-10-08T22:46:39.572Z,63.73
2022-10-08T22:49:11.084Z,64.26
2022-10-08T22:51:39.355Z,64.68
2022-10-08T22:54:07.035Z,64.40
2022-10-08T22:56:35.807Z,65.21
2022-10-08T22:59:03.409Z,65.92
2022-10-08T23:01:34.259Z,65.32
2022-10-08T23:04:01.615Z,64.59
2022-10-08T23:06:33.991Z,64.63
2022-10-08T23:09:11.668Z,64.76
2022-10-08T23:11:39.121Z,64.08
2022-10-08T23:14:06.803Z,64.03
2022-10-08T23:16:35.076Z,64.66
2022-10-08T23:19:08.396Z,64.68
2022-10-08T23:21:37.144Z,65.08
2022-10-08T23:24:05.664Z,65.40
2022-10-08T23:26:33.322Z,65.57
2022-10-08T23:29:01.837Z,64.60
2022-10-08T23:31:37.198Z,65.62
2022-10-08T23:34:08.541Z,66.02
2022-10-08T23:36:43.248Z,65.32
2022-10-08T23:39:16.667Z,65.66
2022-10-08T23:41:44.176Z,65.78
2022-10-08T23:44:12.422Z,64.74
2022-10-08T23:46:39.892Z,65.72
2022-10-08T23:49:07.356Z,65.71
2022-10-08T23:51:34.770Z,65.69
2022-10-08T23:54:02.401Z,65.78
2022-10-08T23:56:30.041Z,67.20
2022-10-08T23:58:58.545Z,66.83
